Time;durP1;ratioP1;P1;durP2;ratioP2;P2;SDS_P1;SDS_P2;PMS_P1;PMS_P2;Temp;Humidity;BMP_temperature;BMP_pressure;BME280_temperature;BME280_humidity;BME280_pressure;Samples;Min_cycle;Max_cycle;Signal;HPM_P1;HPM_P2
2021/04/11 00:01:05;;;;;;;2.73;1.00;;;;;;;;;;4960584;28;20039;-89
2021/04/11 00:03:30;;;;;;;2.67;0.90;;;;;;;;;;4960438;28;20035;-89
2021/04/11 00:05:56;;;;;;;2.40;0.90;;;;;;;;;;4960594;28;20048;-89
2021/04/11 00:08:21;;;;;;;1.63;0.83;;;;;;;;;;4949490;29;20121;-89
2021/04/11 00:10:49;;;;;;;2.27;1.00;;;;;;;;;;4941454;29;20043;-89
2021/04/11 00:13:45;;;;;;;1.25;0.80;;;;;;;;;;4956846;28;20068;-89
2021/04/11 00:16:10;;;;;;;2.50;1.20;;;;;;;;;;4959319;28;20035;-89
2021/04/11 00:18:35;;;;;;;2.07;0.73;;;;;;;;;;4957005;28;20054;-89
2021/04/11 00:21:03;;;;;;;2.40;0.80;;;;;;;;;;4957040;29;20126;-89
2021/04/11 00:23:29;;;;;;;1.90;0.90;;;;;;;;;;4941445;28;20494;-89
2021/04/11 00:25:54;;;;;;;2.83;0.90;;;;;;;;;;4963198;28;20042;-89
2021/04/11 00:28:19;;;;;;;1.70;0.83;;;;;;;;;;4977345;28;20129;-89
2021/04/11 00:30:45;;;;;;;1.77;1.00;;;;;;;;;;4979407;28;20034;-89
2021/04/11 00:33:30;;;;;;;2.57;1.03;;;;;;;;;;4979487;28;20481;-89
2021/04/11 00:36:00;;;;;;;1.52;0.80;;;;;;;;;;4981246;28;20038;-89
2021/04/11 00:38:26;;;;;;;1.48;0.80;;;;;;;;;;4995553;28;20473;-89
2021/04/11 00:40:51;;;;;;;1.83;0.80;;;;;;;;;;4979183;28;20042;-89
2021/04/11 00:43:17;;;;;;;2.20;1.00;;;;;;;;;;4971674;28;20039;-89
2021/04/11 00:46:08;;;;;;;2.95;0.90;;;;;;;;;;4940522;28;20031;-89
2021/04/11 00:48:34;;;;;;;2.42;0.98;;;;;;;;;;4943385;29;20603;-90
2021/04/11 00:51:04;;;;;;;2.57;1.00;;;;;;;;;;4956412;28;20126;-89
2021/04/11 00:53:30;;;;;;;2.17;0.90;;;;;;;;;;4956268;28;20109;-89
2021/04/11 00:55:55;;;;;;;1.87;0.90;;;;;;;;;;4940295;29;20058;-89
2021/04/11 00:58:22;;;;;;;1.17;0.70;;;;;;;;;;4956317;29;20031;-89
2021/04/11 01:00:47;;;;;;;2.28;0.90;;;;;;;;;;4940370;29;20042;-89
2021/04/11 01:03:17;;;;;;;2.17;0.90;;;;;;;;;;4956283;28;20039;-89
2021/04/11 01:05:42;;;;;;;3.40;1.10;;;;;;;;;;4956082;29;20058;-89
2021/04/11 01:08:11;;;;;;;1.20;0.80;;;;;;;;;;4940067;29;20146;-89
2021/04/11 01:10:43;;;;;;;2.50;0.88;;;;;;;;;;4940881;28;20047;-89
2021/04/11 01:13:09;;;;;;;2.17;0.80;;;;;;;;;;4955771;28;20035;-89
2021/04/11 01:15:34;;;;;;;2.20;0.80;;;;;;;;;;4940240;29;20183;-89
2021/04/11 01:17:59;;;;;;;1.97;1.00;;;;;;;;;;4940035;29;20122;-89
2021/04/11 01:20:25;;;;;;;2.40;0.90;;;;;;;;;;4928001;28;20466;-90
2021/04/11 01:23:28;;;;;;;1.73;0.70;;;;;;;;;;4959163;28;20058;-89
2021/04/11 01:25:56;;;;;;;1.95;0.90;;;;;;;;;;4975115;28;20406;-89
2021/04/11 01:28:23;;;;;;;1.67;0.80;;;;;;;;;;4959206;28;20027;-89
2021/04/11 01:30:48;;;;;;;2.40;0.98;;;;;;;;;;4958598;28;20077;-89
2021/04/11 01:33:15;;;;;;;1.90;1.03;;;;;;;;;;4958861;28;20139;-89
2021/04/11 01:35:41;;;;;;;3.17;0.80;;;;;;;;;;4959089;28;20090;-89
2021/04/11 01:38:06;;;;;;;2.23;0.87;;;;;;;;;;4958969;28;20035;-89
2021/04/11 01:40:43;;;;;;;1.60;0.90;;;;;;;;;;4958859;28;20184;-89
2021/04/11 01:43:08;;;;;;;1.85;0.80;;;;;;;;;;4958698;28;20079;-89
2021/04/11 01:45:35;;;;;;;2.03;0.97;;;;;;;;;;4959183;28;20043;-90
2021/04/11 01:48:01;;;;;;;2.05;1.00;;;;;;;;;;4963063;28;20054;-89
2021/04/11 01:50:27;;;;;;;2.03;0.90;;;;;;;;;;4983907;28;20030;-89
2021/04/11 01:52:52;;;;;;;2.93;0.90;;;;;;;;;;4983676;28;20041;-89
2021/04/11 01:55:17;;;;;;;1.97;1.00;;;;;;;;;;4976416;28;20478;-89
2021/04/11 01:57:43;;;;;;;1.90;0.90;;;;;;;;;;4958948;28;20130;-89
2021/04/11 02:00:20;;;;;;;1.20;0.60;;;;;;;;;;4959200;28;20070;-89
2021/04/11 02:02:45;;;;;;;2.90;0.95;;;;;;;;;;4958196;28;20057;-89
2021/04/11 02:05:17;;;;;;;1.77;0.83;;;;;;;;;;4958583;28;20493;-89
2021/04/11 02:07:44;;;;;;;1.67;0.80;;;;;;;;;;4958097;28;20171;-89
2021/04/11 02:10:10;;;;;;;2.00;0.90;;;;;;;;;;4958571;28;20030;-89
2021/04/11 02:12:35;;;;;;;2.03;0.90;;;;;;;;;;4957970;28;20050;-89
2021/04/11 02:15:01;;;;;;;1.50;0.90;;;;;;;;;;4958049;28;20043;-90
2021/04/11 02:17:26;;;;;;;1.37;0.83;;;;;;;;;;4958640;28;20447;-89
2021/04/11 02:19:51;;;;;;;2.47;0.80;;;;;;;;;;4942098;28;20522;-89
2021/04/11 02:22:27;;;;;;;2.60;0.80;;;;;;;;;;4941973;28;20034;-90
2021/04/11 02:24:52;;;;;;;1.88;0.70;;;;;;;;;;4942099;28;20031;-89
2021/04/11 02:27:19;;;;;;;2.40;0.90;;;;;;;;;;4957762;28;20181;-89
2021/04/11 02:29:45;;;;;;;2.25;1.00;;;;;;;;;;4957740;28;20074;-89
2021/04/11 02:32:10;;;;;;;1.57;0.70;;;;;;;;;;4957850;28;20065;-89
2021/04/11 02:34:36;;;;;;;2.37;1.00;;;;;;;;;;4958335;28;20042;-89
2021/04/11 02:37:19;;;;;;;1.30;0.90;;;;;;;;;;4941672;28;20062;-89
2021/04/11 02:39:45;;;;;;;2.50;0.80;;;;;;;;;;4943504;28;20045;-90
2021/04/11 02:42:15;;;;;;;1.47;0.70;;;;;;;;;;4956838;28;20031;-89
2021/04/11 02:44:43;;;;;;;1.98;0.95;;;;;;;;;;4957767;28;20034;-89
2021/04/11 02:47:08;;;;;;;1.83;0.90;;;;;;;;;;4957600;28;20409;-89
2021/04/11 02:49:34;;;;;;;2.43;0.93;;;;;;;;;;4941634;28;20034;-89
2021/04/11 02:52:01;;;;;;;1.43;0.70;;;;;;;;;;4957484;28;20500;-89
2021/04/11 02:54:26;;;;;;;1.70;0.95;;;;;;;;;;4941434;28;20035;-89
2021/04/11 02:56:52;;;;;;;1.60;0.80;;;;;;;;;;4957445;28;20089;-89
2021/04/11 02:59:17;;;;;;;1.73;0.77;;;;;;;;;;4957345;28;20113;-89
2021/04/11 03:01:44;;;;;;;2.17;1.00;;;;;;;;;;4957528;28;20085;-89
2021/04/11 03:04:14;;;;;;;1.75;0.80;;;;;;;;;;4957398;28;20031;-89
2021/04/11 03:06:40;;;;;;;1.40;0.90;;;;;;;;;;4957506;28;20030;-89
2021/04/11 03:09:09;;;;;;;2.83;1.07;;;;;;;;;;4957295;28;20043;-89
2021/04/11 03:11:37;;;;;;;2.05;1.00;;;;;;;;;;4957352;28;20039;-89
2021/04/11 03:14:03;;;;;;;1.88;0.90;;;;;;;;;;4973495;28;20091;-89
2021/04/11 03:16:29;;;;;;;1.47;0.70;;;;;;;;;;4957312;28;20446;-89
2021/04/11 03:18:54;;;;;;;1.40;0.70;;;;;;;;;;4941181;28;20026;-89
2021/04/11 03:21:20;;;;;;;1.20;0.90;;;;;;;;;;4957237;28;20042;-90
2021/04/11 03:23:45;;;;;;;1.23;0.70;;;;;;;;;;4957128;28;20486;-89
2021/04/11 03:26:10;;;;;;;1.53;0.80;;;;;;;;;;4957336;28;20058;-89
2021/04/11 03:28:40;;;;;;;2.03;1.07;;;;;;;;;;4973250;28;20035;-89
2021/04/11 03:31:14;;;;;;;1.80;0.88;;;;;;;;;;4957413;28;20090;-89
2021/04/11 03:33:43;;;;;;;1.67;0.80;;;;;;;;;;4973454;28;20066;-89
2021/04/11 03:36:10;;;;;;;1.85;0.80;;;;;;;;;;4957343;28;20508;-89
2021/04/11 03:38:36;;;;;;;1.90;0.80;;;;;;;;;;4957411;28;20109;-89
2021/04/11 03:41:01;;;;;;;2.30;1.10;;;;;;;;;;4956994;28;20482;-89
2021/04/11 03:43:47;;;;;;;2.23;1.03;;;;;;;;;;4941009;28;20062;-89
2021/04/11 03:46:20;;;;;;;2.17;1.00;;;;;;;;;;4957147;28;20034;-89
2021/04/11 03:48:56;;;;;;;2.55;0.90;;;;;;;;;;4957613;28;20062;-89
2021/04/11 03:51:23;;;;;;;2.07;0.80;;;;;;;;;;4957135;28;20078;-90
2021/04/11 03:54:15;;;;;;;1.73;0.82;;;;;;;;;;4960507;28;20274;-89
2021/04/11 03:56:43;;;;;;;2.08;1.00;;;;;;;;;;4969484;28;20039;-89
2021/04/11 03:59:08;;;;;;;1.35;0.73;;;;;;;;;;4960611;28;20081;-89
2021/04/11 04:01:37;;;;;;;2.03;1.10;;;;;;;;;;4960393;28;20520;-89
2021/04/11 04:04:05;;;;;;;1.88;0.90;;;;;;;;;;4944782;28;20031;-89
2021/04/11 04:06:32;;;;;;;1.63;0.88;;;;;;;;;;4960487;28;20090;-89
2021/04/11 04:08:57;;;;;;;1.45;0.73;;;;;;;;;;4960452;28;20137;-89
2021/04/11 04:11:33;;;;;;;2.63;0.87;;;;;;;;;;4960031;28;20121;-90
2021/04/11 04:14:07;;;;;;;1.73;1.00;;;;;;;;;;5000448;23;20038;-77
2021/04/11 04:16:53;;;;;;;1.45;0.80;;;;;;;;;;5029875;28;20055;-77
2021/04/11 04:19:37;;;;;;;1.65;0.80;;;;;;;;;;5037869;28;20033;-76
2021/04/11 04:22:27;;;;;;;2.15;0.98;;;;;;;;;;5045970;28;20029;-76
2021/04/11 04:25:07;;;;;;;1.50;0.80;;;;;;;;;;5033737;28;20037;-75
2021/04/11 04:27:51;;;;;;;1.98;0.95;;;;;;;;;;5050724;28;20043;-76
2021/04/11 04:30:18;;;;;;;1.95;0.90;;;;;;;;;;5036070;28;20419;-75
2021/04/11 04:33:12;;;;;;;2.50;0.90;;;;;;;;;;5050847;28;20146;-76
2021/04/11 04:35:55;;;;;;;1.50;0.70;;;;;;;;;;5034102;28;20041;-75
2021/04/11 04:38:27;;;;;;;2.00;0.95;;;;;;;;;;5033801;28;20033;-78
2021/04/11 04:41:14;;;;;;;2.03;0.90;;;;;;;;;;5034280;28;20095;-76
2021/04/11 04:43:53;;;;;;;3.00;0.88;;;;;;;;;;5050334;28;20044;-77
2021/04/11 04:46:32;;;;;;;2.33;0.73;;;;;;;;;;5034204;28;20111;-77
2021/04/11 04:49:06;;;;;;;2.15;1.00;;;;;;;;;;5017101;28;20400;-76
2021/04/11 04:51:52;;;;;;;3.17;1.00;;;;;;;;;;5034993;28;20463;-77
2021/04/11 04:54:33;;;;;;;2.20;0.90;;;;;;;;;;5033902;28;20442;-77
2021/04/11 04:57:33;;;;;;;2.95;0.90;;;;;;;;;;5049852;28;20042;-77
2021/04/11 05:00:05;;;;;;;1.45;0.80;;;;;;;;;;5014860;28;20113;-77
2021/04/11 05:02:35;;;;;;;2.50;1.00;;;;;;;;;;5033979;28;20045;-77
2021/04/11 05:05:00;;;;;;;2.30;0.90;;;;;;;;;;5032488;28;20037;-77
2021/04/11 05:07:27;;;;;;;1.10;0.70;;;;;;;;;;5016775;28;20403;-77
2021/04/11 05:09:57;;;;;;;1.88;1.00;;;;;;;;;;5030464;28;20500;-77
2021/04/11 05:12:39;;;;;;;1.67;0.90;;;;;;;;;;5053738;28;20120;-77
2021/04/11 05:15:13;;;;;;;1.40;0.88;;;;;;;;;;5025992;28;20116;-77
2021/04/11 05:17:47;;;;;;;1.42;0.90;;;;;;;;;;5017109;28;20037;-76
2021/04/11 05:20:16;;;;;;;1.65;0.80;;;;;;;;;;5017614;28;20041;-76
2021/04/11 05:23:03;;;;;;;1.77;0.80;;;;;;;;;;5033354;28;20072;-76
2021/04/11 05:25:35;;;;;;;1.40;0.70;;;;;;;;;;5033078;28;20064;-75
2021/04/11 05:28:06;;;;;;;1.55;0.77;;;;;;;;;;5049661;28;20041;-76
2021/04/11 05:30:40;;;;;;;1.73;0.70;;;;;;;;;;5049823;28;20045;-76
2021/04/11 05:33:08;;;;;;;1.50;0.77;;;;;;;;;;5049353;28;20033;-75
2021/04/11 05:35:33;;;;;;;3.50;0.80;;;;;;;;;;5033192;28;20112;-76
2021/04/11 05:38:27;;;;;;;1.53;0.80;;;;;;;;;;5032719;28;20109;-76
2021/04/11 05:41:05;;;;;;;2.20;0.90;;;;;;;;;;5032935;28;20034;-76
2021/04/11 05:43:36;;;;;;;1.10;0.70;;;;;;;;;;5032915;28;20027;-76
2021/04/11 05:46:23;;;;;;;1.90;0.95;;;;;;;;;;5033034;28;20427;-76
2021/04/11 05:48:57;;;;;;;1.52;0.80;;;;;;;;;;5048907;28;20037;-76
2021/04/11 05:51:37;;;;;;;1.48;0.88;;;;;;;;;;5032614;28;20416;-76
2021/04/11 05:54:18;;;;;;;1.45;0.80;;;;;;;;;;5015844;28;20029;-76
2021/04/11 05:56:47;;;;;;;3.13;0.90;;;;;;;;;;5049253;28;20484;-76
2021/04/11 05:59:18;;;;;;;1.42;0.80;;;;;;;;;;5032635;28;20065;-76
2021/04/11 06:01:47;;;;;;;1.70;0.90;;;;;;;;;;5032653;28;20063;-76
2021/04/11 06:04:16;;;;;;;2.13;0.95;;;;;;;;;;5013607;28;20037;-76
2021/04/11 06:06:45;;;;;;;1.60;1.00;;;;;;;;;;5015967;28;20034;-75
2021/04/11 06:09:25;;;;;;;1.63;0.80;;;;;;;;;;5032298;28;20025;-76
2021/04/11 06:12:11;;;;;;;1.48;0.88;;;;;;;;;;5033643;28;20033;-76
2021/04/11 06:14:44;;;;;;;1.85;0.90;;;;;;;;;;5032351;28;20033;-76
2021/04/11 06:17:10;;;;;;;1.27;0.73;;;;;;;;;;5048853;28;20037;-75
2021/04/11 06:19:35;;;;;;;1.33;0.80;;;;;;;;;;5016810;28;20508;-76
2021/04/11 06:22:20;;;;;;;1.60;0.90;;;;;;;;;;5032529;28;20120;-75
2021/04/11 06:25:02;;;;;;;1.92;0.88;;;;;;;;;;5048896;28;20546;-75
2021/04/11 06:27:31;;;;;;;1.60;0.82;;;;;;;;;;5048524;28;20037;-76
2021/04/11 06:30:27;;;;;;;1.85;0.90;;;;;;;;;;5032190;28;20045;-76
2021/04/11 06:33:00;;;;;;;1.98;0.90;;;;;;;;;;5031663;28;20052;-76
2021/04/11 06:35:28;;;;;;;2.35;0.98;;;;;;;;;;5032032;28;20028;-76
2021/04/11 06:37:55;;;;;;;2.03;0.80;;;;;;;;;;5031630;28;20076;-76
2021/04/11 06:40:43;;;;;;;2.28;0.93;;;;;;;;;;5031161;28;20033;-76
2021/04/11 06:43:17;;;;;;;;;;;;;;;;;;5048978;28;20029;-77
2021/04/11 06:45:51;;;;;;;1.95;0.90;;;;;;;;;;5031565;28;19913;-76
2021/04/11 06:48:41;;;;;;;1.40;0.80;;;;;;;;;;5015144;28;20033;-77
2021/04/11 06:51:07;;;;;;;2.20;0.90;;;;;;;;;;5031324;28;20045;-76
2021/04/11 06:53:39;;;;;;;1.83;1.00;;;;;;;;;;5032855;28;20051;-76
2021/04/11 06:56:07;;;;;;;1.75;0.85;;;;;;;;;;5031782;28;20029;-76
2021/04/11 06:58:54;;;;;;;1.73;0.90;;;;;;;;;;5031434;28;20481;-76
2021/04/11 07:02:01;;;;;;;1.83;0.88;;;;;;;;;;5033070;28;20037;-76
2021/04/11 07:04:29;;;;;;;2.35;1.00;;;;;;;;;;5011009;28;20409;-76
2021/04/11 07:07:06;;;;;;;1.63;0.70;;;;;;;;;;5011078;28;20034;-76
2021/04/11 07:10:10;;;;;;;;;;;;;;;;;;5014596;28;20419;-76
2021/04/11 07:12:59;;;;;;;2.88;1.00;;;;;;;;;;4991584;28;19949;-76
2021/04/11 07:15:31;;;;;;;1.95;1.00;;;;;;;;;;4991066;28;20092;-76
2021/04/11 07:18:24;;;;;;;1.70;0.90;;;;;;;;;;5018321;28;20057;-76
2021/04/11 07:21:10;;;;;;;2.42;1.00;;;;;;;;;;5015118;28;20408;-76
2021/04/11 07:23:54;;;;;;;2.35;1.02;;;;;;;;;;5032772;28;20405;-76
2021/04/11 07:26:27;;;;;;;2.00;1.00;;;;;;;;;;5028412;28;20030;-76
2021/04/11 07:29:30;;;;;;;2.38;0.90;;;;;;;;;;5042578;28;20492;-76
2021/04/11 07:32:05;;;;;;;2.08;0.90;;;;;;;;;;5035371;28;20084;-76
2021/04/11 07:34:54;;;;;;;1.58;0.82;;;;;;;;;;5039299;28;20489;-78
2021/04/11 07:37:41;;;;;;;2.50;1.00;;;;;;;;;;5029663;28;20045;-78
2021/04/11 07:40:17;;;;;;;2.67;1.13;;;;;;;;;;5019896;28;20499;-77
2021/04/11 07:42:53;;;;;;;2.17;0.90;;;;;;;;;;5034981;28;20108;-77
2021/04/11 07:45:33;;;;;;;1.30;0.70;;;;;;;;;;5051466;28;20029;-78
2021/04/11 07:48:21;;;;;;;2.50;0.98;;;;;;;;;;5018349;28;20025;-77
2021/04/11 07:51:08;;;;;;;1.58;0.82;;;;;;;;;;5035003;28;20041;-77
2021/04/11 07:54:11;;;;;;;3.08;1.00;;;;;;;;;;5015471;28;20025;-77
2021/04/11 07:57:13;;;;;;;1.80;1.00;;;;;;;;;;5014626;28;20037;-77
2021/04/11 08:00:13;;;;;;;2.53;0.90;;;;;;;;;;5033888;28;20437;-77
2021/04/11 08:03:04;;;;;;;2.80;0.75;;;;;;;;;;5035291;28;20120;-77
2021/04/11 08:05:39;;;;;;;2.83;1.13;;;;;;;;;;5052644;28;20045;-79
2021/04/11 08:08:19;;;;;;;2.78;0.90;;;;;;;;;;5036670;28;20053;-80
2021/04/11 08:11:06;;;;;;;1.95;0.80;;;;;;;;;;5047110;28;20048;-79
2021/04/11 08:13:55;;;;;;;2.05;0.90;;;;;;;;;;5037811;28;20057;-79
2021/04/11 08:16:59;;;;;;;3.25;1.00;;;;;;;;;;5037240;28;20099;-78
2021/04/11 08:20:03;;;;;;;4.18;1.20;;;;;;;;;;5034345;28;20518;-77
2021/04/11 08:23:08;;;;;;;2.45;0.82;;;;;;;;;;5035772;28;20037;-77
2021/04/11 08:25:38;;;;;;;1.77;0.77;;;;;;;;;;5034899;28;20033;-78
2021/04/11 08:28:19;;;;;;;1.85;0.98;;;;;;;;;;5051654;28;20041;-77
2021/04/11 08:30:49;;;;;;;2.40;1.00;;;;;;;;;;5051805;28;20400;-78
2021/04/11 08:33:14;;;;;;;2.28;1.00;;;;;;;;;;5034436;28;20103;-78
2021/04/11 08:35:58;;;;;;;3.37;1.20;;;;;;;;;;5034580;28;20495;-78
2021/04/11 08:38:36;;;;;;;2.63;1.00;;;;;;;;;;5051111;28;20125;-78
2021/04/11 08:41:30;;;;;;;1.77;0.95;;;;;;;;;;5034872;28;20063;-77
2021/04/11 08:44:20;;;;;;;3.08;1.00;;;;;;;;;;5033757;28;20132;-78
2021/04/11 08:47:23;;;;;;;1.58;0.80;;;;;;;;;;5034480;28;20554;-78
2021/04/11 08:49:53;;;;;;;2.72;1.00;;;;;;;;;;5034490;28;20041;-78
2021/04/11 08:52:38;;;;;;;3.80;1.15;;;;;;;;;;5034550;28;20055;-78
2021/04/11 08:55:05;;;;;;;1.55;0.85;;;;;;;;;;5018007;28;20029;-77
2021/04/11 08:57:34;;;;;;;5.03;1.17;;;;;;;;;;5030669;28;20034;-77
2021/04/11 09:00:14;;;;;;;2.28;1.00;;;;;;;;;;5022022;28;20550;-77
2021/04/11 09:02:55;;;;;;;2.85;1.10;;;;;;;;;;5033742;28;20037;-77
2021/04/11 09:05:46;;;;;;;3.22;0.98;;;;;;;;;;5033643;28;20055;-77
2021/04/11 09:08:19;;;;;;;1.65;0.90;;;;;;;;;;5016931;28;20037;-77
2021/04/11 09:10:59;;;;;;;2.20;0.90;;;;;;;;;;5050420;28;20037;-77
2021/04/11 09:13:55;;;;;;;1.60;1.02;;;;;;;;;;5034683;28;20381;-77
2021/04/11 09:16:34;;;;;;;3.78;0.98;;;;;;;;;;5049993;28;20030;-77
2021/04/11 09:19:22;;;;;;;1.67;1.08;;;;;;;;;;5049194;28;20124;-77
2021/04/11 09:22:28;;;;;;;1.35;0.70;;;;;;;;;;5043544;28;20045;-77
2021/04/11 09:25:02;;;;;;;3.08;1.10;;;;;;;;;;5003310;28;20133;-76
2021/04/11 09:28:09;;;;;;;2.65;1.10;;;;;;;;;;5027349;28;20068;-77
2021/04/11 09:30:46;;;;;;;2.17;1.05;;;;;;;;;;5043480;28;20057;-78
2021/04/11 09:33:17;;;;;;;1.92;1.05;;;;;;;;;;5057104;28;20040;-78
2021/04/11 09:35:45;;;;;;;1.85;1.00;;;;;;;;;;5040519;28;20033;-78
2021/04/11 09:38:43;;;;;;;2.95;1.10;;;;;;;;;;5041530;28;20033;-79
2021/04/11 09:41:27;;;;;;;4.70;1.00;;;;;;;;;;5042636;28;20026;-78
2021/04/11 09:43:52;;;;;;;3.70;1.00;;;;;;;;;;5052635;28;20043;-78
2021/04/11 09:46:20;;;;;;;1.97;0.87;;;;;;;;;;5045870;28;20033;-78
2021/04/11 09:49:07;;;;;;;3.08;1.10;;;;;;;;;;5043307;28;20037;-80
2021/04/11 09:51:58;;;;;;;2.67;1.00;;;;;;;;;;5030074;28;20042;-80
2021/04/11 09:54:45;;;;;;;2.42;1.00;;;;;;;;;;5024447;28;20034;-80
2021/04/11 09:57:41;;;;;;;1.95;1.10;;;;;;;;;;5013799;28;20029;-80
2021/04/11 10:00:23;;;;;;;2.35;1.00;;;;;;;;;;5058923;28;20045;-79
2021/04/11 10:02:48;;;;;;;1.85;1.05;;;;;;;;;;5057011;28;20515;-77
2021/04/11 10:05:15;;;;;;;1.80;0.90;;;;;;;;;;5035292;28;20045;-78
2021/04/11 10:07:47;;;;;;;1.88;1.05;;;;;;;;;;5050219;28;20033;-77
2021/04/11 10:10:28;;;;;;;1.80;1.00;;;;;;;;;;5036452;28;20037;-78
2021/04/11 10:13:05;;;;;;;1.75;0.98;;;;;;;;;;5027041;28;20029;-79
2021/04/11 10:15:49;;;;;;;2.30;0.90;;;;;;;;;;5056006;28;20045;-79
2021/04/11 10:18:24;;;;;;;1.92;1.15;;;;;;;;;;5026154;28;20037;-79
2021/04/11 10:21:08;;;;;;;1.65;1.00;;;;;;;;;;5043808;28;20043;-78
2021/04/11 10:23:39;;;;;;;2.17;1.10;;;;;;;;;;5033930;28;20045;-78
2021/04/11 10:26:12;;;;;;;3.08;1.10;;;;;;;;;;5033320;28;20048;-78
2021/04/11 10:28:49;;;;;;;2.08;1.10;;;;;;;;;;5033058;28;20052;-78
2021/04/11 10:31:37;;;;;;;2.70;1.08;;;;;;;;;;5033473;28;20133;-78
2021/04/11 10:34:05;;;;;;;2.58;1.00;;;;;;;;;;5009712;28;20033;-78
2021/04/11 10:36:48;;;;;;;2.13;1.00;;;;;;;;;;5034173;28;20033;-78
2021/04/11 10:39:35;;;;;;;2.63;0.95;;;;;;;;;;5032617;28;20040;-78
2021/04/11 10:42:29;;;;;;;2.50;1.10;;;;;;;;;;5047619;28;20042;-78
2021/04/11 10:45:19;;;;;;;2.85;1.10;;;;;;;;;;5069791;22;20053;-76
2021/04/11 10:47:59;;;;;;;2.95;1.30;;;;;;;;;;5069646;28;20040;-76
2021/04/11 10:50:28;;;;;;;1.55;0.90;;;;;;;;;;5057427;28;20033;-76
2021/04/11 10:53:12;;;;;;;2.22;1.00;;;;;;;;;;5018905;28;20029;-77
2021/04/11 10:56:15;;;;;;;2.70;1.00;;;;;;;;;;5053600;28;20057;-76
2021/04/11 10:59:01;;;;;;;1.88;1.00;;;;;;;;;;5071923;28;20398;-77
2021/04/11 11:01:45;;;;;;;2.00;1.00;;;;;;;;;;5069243;28;20065;-77
2021/04/11 11:04:22;;;;;;;2.67;1.08;;;;;;;;;;5052555;28;20040;-77
2021/04/11 11:07:19;;;;;;;2.40;1.10;;;;;;;;;;5053022;28;20033;-77
2021/04/11 11:09:51;;;;;;;1.85;1.00;;;;;;;;;;5067842;28;20039;-76
2021/04/11 11:12:29;;;;;;;1.90;0.90;;;;;;;;;;5062362;28;20118;-76
2021/04/11 11:15:02;;;;;;;3.78;1.20;;;;;;;;;;5051928;28;20033;-76
2021/04/11 11:17:55;;;;;;;2.90;1.10;;;;;;;;;;5035264;28;20095;-76
2021/04/11 11:20:24;;;;;;;3.30;1.00;;;;;;;;;;5051798;28;20037;-76
2021/04/11 11:22:55;;;;;;;2.03;0.80;;;;;;;;;;5035678;28;20060;-76
2021/04/11 11:25:48;;;;;;;1.52;0.80;;;;;;;;;;5061058;28;20032;-76
2021/04/11 11:28:53;;;;;;;1.55;0.90;;;;;;;;;;5058630;28;20036;-76
2021/04/11 11:31:54;;;;;;;2.08;0.85;;;;;;;;;;5051515;28;20037;-76
2021/04/11 11:34:24;;;;;;;4.00;1.00;;;;;;;;;;5051533;28;20033;-77
2021/04/11 11:37:28;;;;;;;1.88;1.13;;;;;;;;;;5023142;28;20387;-76
2021/04/11 11:40:15;;;;;;;1.80;0.90;;;;;;;;;;5049056;28;20036;-76
2021/04/11 11:42:53;;;;;;;2.47;0.90;;;;;;;;;;5019023;28;20037;-76
2021/04/11 11:45:44;;;;;;;2.33;1.02;;;;;;;;;;5038699;28;20032;-77
2021/04/11 11:48:20;;;;;;;2.42;0.90;;;;;;;;;;5067540;28;20119;-76
2021/04/11 11:50:56;;;;;;;1.85;0.70;;;;;;;;;;5066277;28;20103;-76
2021/04/11 11:53:24;;;;;;;2.53;0.90;;;;;;;;;;5048903;28;20120;-76
2021/04/11 11:56:01;;;;;;;1.33;0.80;;;;;;;;;;5036887;28;20036;-77
2021/04/11 11:58:28;;;;;;;1.58;0.80;;;;;;;;;;5057149;28;20067;-77
2021/04/11 12:00:58;;;;;;;1.23;0.80;;;;;;;;;;5037988;28;20036;-77
2021/04/11 12:03:32;;;;;;;3.00;1.00;;;;;;;;;;5034762;28;20045;-77
2021/04/11 12:06:09;;;;;;;2.50;0.90;;;;;;;;;;5053509;28;20040;-76
2021/04/11 12:08:58;;;;;;;2.15;0.90;;;;;;;;;;5073407;28;20040;-76
2021/04/11 12:11:49;;;;;;;2.95;0.90;;;;;;;;;;5019095;28;20045;-76
2021/04/11 12:14:37;;;;;;;1.13;0.70;;;;;;;;;;5057305;28;20079;-77
2021/04/11 12:17:23;;;;;;;1.70;0.80;;;;;;;;;;5089300;28;20031;-77
2021/04/11 12:20:01;;;;;;;1.77;0.90;;;;;;;;;;5089886;28;20052;-77
2021/04/11 12:22:41;;;;;;;2.08;0.95;;;;;;;;;;5090056;28;20068;-77
2021/04/11 12:25:10;;;;;;;2.33;0.90;;;;;;;;;;5090596;28;20044;-77
2021/04/11 12:27:36;;;;;;;1.27;0.70;;;;;;;;;;5075658;28;20036;-77
2021/04/11 12:30:02;;;;;;;1.40;0.90;;;;;;;;;;5091227;28;20036;-77
2021/04/11 12:33:03;;;;;;;1.92;0.80;;;;;;;;;;5074430;28;20406;-77
2021/04/11 12:35:38;;;;;;;1.48;0.70;;;;;;;;;;5081727;28;20398;-77
2021/04/11 12:38:12;;;;;;;1.95;0.90;;;;;;;;;;5078331;28;20032;-77
2021/04/11 12:40:44;;;;;;;1.88;0.90;;;;;;;;;;5095748;28;20036;-77
2021/04/11 12:43:36;;;;;;;1.50;0.75;;;;;;;;;;5078386;28;20082;-77
2021/04/11 12:46:14;;;;;;;2.03;0.80;;;;;;;;;;5094580;28;20446;-77
2021/04/11 12:48:58;;;;;;;1.40;0.80;;;;;;;;;;5077819;28;20028;-77
2021/04/11 12:51:38;;;;;;;1.50;1.00;;;;;;;;;;5078218;28;20043;-77
2021/04/11 12:54:20;;;;;;;1.85;0.80;;;;;;;;;;5078975;28;20032;-77
2021/04/11 12:56:54;;;;;;;1.98;0.80;;;;;;;;;;5077308;28;20032;-77
2021/04/11 12:59:30;;;;;;;1.70;0.98;;;;;;;;;;5077555;28;20074;-76
2021/04/11 13:01:57;;;;;;;2.35;0.85;;;;;;;;;;5094472;28;20035;-76
2021/04/11 13:04:33;;;;;;;1.40;0.75;;;;;;;;;;5076617;28;20024;-76
2021/04/11 13:07:06;;;;;;;1.20;0.80;;;;;;;;;;5078255;28;20490;-77
2021/04/11 13:09:34;;;;;;;1.50;0.93;;;;;;;;;;5058840;28;20514;-77
2021/04/11 13:12:06;;;;;;;1.70;0.85;;;;;;;;;;5088886;28;20043;-77
2021/04/11 13:14:37;;;;;;;1.92;0.80;;;;;;;;;;5080864;28;20107;-76
2021/04/11 13:17:14;;;;;;;3.55;0.90;;;;;;;;;;5073709;28;20116;-77
2021/04/11 13:19:49;;;;;;;2.25;0.85;;;;;;;;;;5090431;28;20490;-77
2021/04/11 13:22:24;;;;;;;1.20;0.85;;;;;;;;;;5073473;28;20044;-77
2021/04/11 13:25:12;;;;;;;2.05;0.85;;;;;;;;;;5072953;28;20082;-77
2021/04/11 13:27:40;;;;;;;1.55;0.90;;;;;;;;;;5073487;28;20035;-77
2021/04/11 13:30:09;;;;;;;1.45;0.80;;;;;;;;;;5073390;28;20040;-77
2021/04/11 13:32:57;;;;;;;1.63;0.77;;;;;;;;;;5073200;28;20407;-77
2021/04/11 13:35:23;;;;;;;;;;;;;;;;;;5073610;28;20071;-77
2021/04/11 13:37:54;;;;;;;1.23;0.63;;;;;;;;;;5090001;28;19916;-77
2021/04/11 13:40:22;;;;;;;1.10;0.70;;;;;;;;;;5089609;28;20041;-77
2021/04/11 13:43:22;;;;;;;1.85;0.80;;;;;;;;;;5056245;28;20090;-77
2021/04/11 13:46:10;;;;;;;1.60;0.75;;;;;;;;;;5072810;28;20040;-77
2021/04/11 13:48:46;;;;;;;2.72;0.70;;;;;;;;;;5072599;28;20391;-76
2021/04/11 13:51:30;;;;;;;1.30;0.80;;;;;;;;;;5089865;28;20032;-77
2021/04/11 13:54:01;;;;;;;1.85;0.75;;;;;;;;;;5089871;28;20043;-77
2021/04/11 13:56:46;;;;;;;2.08;0.80;;;;;;;;;;5072716;28;20025;-76
2021/04/11 13:59:31;;;;;;;1.42;0.80;;;;;;;;;;5088817;28;20075;-77
2021/04/11 14:01:58;;;;;;;1.27;0.80;;;;;;;;;;5072109;28;20407;-77
2021/04/11 14:04:44;;;;;;;1.88;0.80;;;;;;;;;;5089698;28;20090;-77
2021/04/11 14:07:16;;;;;;;1.08;0.70;;;;;;;;;;5089692;28;20021;-77
2021/04/11 14:09:50;;;;;;;1.10;0.75;;;;;;;;;;5072395;28;20029;-77
2021/04/11 14:12:20;;;;;;;1.65;0.80;;;;;;;;;;5072519;28;20043;-77
2021/04/11 14:14:50;;;;;;;1.13;0.60;;;;;;;;;;5089431;28;20036;-76
2021/04/11 14:17:26;;;;;;;1.80;0.88;;;;;;;;;;5089344;28;20077;-77
2021/04/11 14:19:58;;;;;;;1.83;0.80;;;;;;;;;;5071987;28;20111;-77
2021/04/11 14:22:28;;;;;;;1.50;0.80;;;;;;;;;;5089275;28;20537;-77
2021/04/11 14:25:18;;;;;;;1.35;0.80;;;;;;;;;;5055659;28;20029;-77
2021/04/11 14:28:04;;;;;;;1.23;0.70;;;;;;;;;;5072382;28;20028;-77
2021/04/11 14:30:33;;;;;;;1.30;0.70;;;;;;;;;;5072202;28;20460;-77
2021/04/11 14:33:16;;;;;;;1.20;0.70;;;;;;;;;;5072273;28;20108;-77
2021/04/11 14:35:54;;;;;;;2.00;0.80;;;;;;;;;;5072127;28;20033;-77
2021/04/11 14:38:44;;;;;;;1.30;0.80;;;;;;;;;;5071589;28;20112;-77
2021/04/11 14:41:11;;;;;;;2.45;0.80;;;;;;;;;;5073432;28;20040;-77
2021/04/11 14:43:42;;;;;;;1.55;0.73;;;;;;;;;;5055369;28;20463;-77
2021/04/11 14:46:49;;;;;;;1.42;0.68;;;;;;;;;;5088733;28;20040;-77
2021/04/11 14:49:25;;;;;;;1.58;0.80;;;;;;;;;;5060959;28;20043;-77
2021/04/11 14:51:58;;;;;;;1.55;0.80;;;;;;;;;;5055253;28;20055;-77
2021/04/11 14:54:42;;;;;;;1.23;0.70;;;;;;;;;;5071908;28;20064;-77
2021/04/11 14:57:12;;;;;;;2.38;0.88;;;;;;;;;;5073394;28;20032;-77
2021/04/11 15:00:05;;;;;;;1.48;0.90;;;;;;;;;;5071820;28;20077;-77
2021/04/11 15:02:51;;;;;;;1.70;0.80;;;;;;;;;;5071801;28;20487;-77
2021/04/11 15:05:33;;;;;;;1.33;0.65;;;;;;;;;;5088482;28;20067;-77
2021/04/11 15:08:17;;;;;;;2.17;0.90;;;;;;;;;;5071029;28;20400;-76
2021/04/11 15:11:12;;;;;;;2.78;0.80;;;;;;;;;;5073032;28;20114;-77
2021/04/11 15:13:49;;;;;;;2.08;0.80;;;;;;;;;;5088566;28;20029;-77
2021/04/11 15:16:33;;;;;;;2.83;0.95;;;;;;;;;;5073105;28;20071;-77
2021/04/11 15:19:37;;;;;;;2.67;0.70;;;;;;;;;;5054920;28;20404;-77
2021/04/11 15:22:26;;;;;;;1.65;0.80;;;;;;;;;;5088514;28;20060;-77
2021/04/11 15:25:00;;;;;;;1.75;0.70;;;;;;;;;;5088485;28;20510;-76
2021/04/11 15:27:48;;;;;;;1.98;0.60;;;;;;;;;;5071506;28;20040;-77
2021/04/11 15:30:38;;;;;;;1.10;0.70;;;;;;;;;;5088307;28;20082;-77
2021/04/11 15:33:14;;;;;;;1.40;0.60;;;;;;;;;;5054802;28;20075;-77
2021/04/11 15:35:54;;;;;;;1.55;0.77;;;;;;;;;;5054919;28;20039;-77
2021/04/11 15:38:26;;;;;;;1.10;0.70;;;;;;;;;;5071476;28;20085;-77
2021/04/11 15:41:08;;;;;;;1.27;0.70;;;;;;;;;;5071499;28;20037;-76